sensor_id;sensor_type;location;lat;lon;timestamp;temperature;humidity
18225;DHT22;9237;48.590;8.854;2023-08-30T00:00:58;11.50;99.90
18225;DHT22;9237;48.590;8.854;2023-08-30T00:03:25;11.60;99.90
18225;DHT22;9237;48.590;8.854;2023-08-30T00:05:52;11.50;99.90
18225;DHT22;9237;48.590;8.854;2023-08-30T00:08:19;11.60;99.90
18225;DHT22;9237;48.590;8.854;2023-08-30T00:10:46;11.60;99.90
18225;DHT22;9237;48.590;8.854;2023-08-30T00:13:12;11.60;99.90
18225;DHT22;9237;48.590;8.854;2023-08-30T00:15:39;11.70;99.90
18225;DHT22;9237;48.590;8.854;2023-08-30T00:18:07;11.70;99.90
18225;DHT22;9237;48.590;8.854;2023-08-30T00:20:34;11.70;99.90
18225;DHT22;9237;48.590;8.854;2023-08-30T00:23:01;11.70;99.90
18225;DHT22;9237;48.590;8.854;2023-08-30T00:25:28;11.70;99.90
18225;DHT22;9237;48.590;8.854;2023-08-30T00:27:55;11.70;99.90
18225;DHT22;9237;48.590;8.854;2023-08-30T00:30:22;11.70;99.90
18225;DHT22;9237;48.590;8.854;2023-08-30T00:32:49;11.80;99.90
18225;DHT22;9237;48.590;8.854;2023-08-30T00:35:17;11.80;99.90
18225;DHT22;9237;48.590;8.854;2023-08-30T00:37:44;11.80;99.90
18225;DHT22;9237;48.590;8.854;2023-08-30T00:40:11;11.80;99.90
18225;DHT22;9237;48.590;8.854;2023-08-30T00:42:38;11.80;99.90
18225;DHT22;9237;48.590;8.854;2023-08-30T00:45:06;11.80;99.90
18225;DHT22;9237;48.590;8.854;2023-08-30T00:47:33;11.80;99.90
18225;DHT22;9237;48.590;8.854;2023-08-30T00:50:01;11.80;99.90
18225;DHT22;9237;48.590;8.854;2023-08-30T00:52:29;11.80;99.90
18225;DHT22;9237;48.590;8.854;2023-08-30T00:54:56;11.90;99.90
18225;DHT22;9237;48.590;8.854;2023-08-30T00:57:23;11.70;99.90
18225;DHT22;9237;48.590;8.854;2023-08-30T00:59:51;11.60;99.90
18225;DHT22;9237;48.590;8.854;2023-08-30T01:02:19;11.60;99.90
18225;DHT22;9237;48.590;8.854;2023-08-30T01:04:47;11.50;99.90
18225;DHT22;9237;48.590;8.854;2023-08-30T01:07:14;11.40;99.90
18225;DHT22;9237;48.590;8.854;2023-08-30T01:09:42;11.40;99.90
18225;DHT22;9237;48.590;8.854;2023-08-30T01:12:11;11.40;99.90
18225;DHT22;9237;48.590;8.854;2023-08-30T01:14:45;11.40;99.90
18225;DHT22;9237;48.590;8.854;2023-08-30T01:17:16;11.40;99.90
18225;DHT22;9237;48.590;8.854;2023-08-30T01:19:48;11.40;99.90
18225;DHT22;9237;48.590;8.854;2023-08-30T01:22:21;11.40;99.90
18225;DHT22;9237;48.590;8.854;2023-08-30T01:25:04;11.30;99.90
18225;DHT22;9237;48.590;8.854;2023-08-30T01:27:37;11.20;99.90
18225;DHT22;9237;48.590;8.854;2023-08-30T01:30:06;11.10;99.90
18225;DHT22;9237;48.590;8.854;2023-08-30T01:32:34;11.00;99.90
18225;DHT22;9237;48.590;8.854;2023-08-30T01:35:02;11.00;99.90
18225;DHT22;9237;48.590;8.854;2023-08-30T01:37:30;10.90;99.90
18225;DHT22;9237;48.590;8.854;2023-08-30T01:39:57;11.20;99.90
18225;DHT22;9237;48.590;8.854;2023-08-30T01:42:25;10.80;99.90
18225;DHT22;9237;48.590;8.854;2023-08-30T01:44:56;10.80;99.90
18225;DHT22;9237;48.590;8.854;2023-08-30T01:47:24;10.80;99.90
18225;DHT22;9237;48.590;8.854;2023-08-30T01:49:53;10.70;99.90
18225;DHT22;9237;48.590;8.854;2023-08-30T01:52:21;10.60;99.90
18225;DHT22;9237;48.590;8.854;2023-08-30T01:54:51;10.50;99.90
18225;DHT22;9237;48.590;8.854;2023-08-30T01:57:18;10.70;99.90
18225;DHT22;9237;48.590;8.854;2023-08-30T01:59:45;10.70;99.90
18225;DHT22;9237;48.590;8.854;2023-08-30T02:02:13;11.00;99.90
18225;DHT22;9237;48.590;8.854;2023-08-30T02:04:40;10.40;99.90
18225;DHT22;9237;48.590;8.854;2023-08-30T02:07:10;10.40;99.90
18225;DHT22;9237;48.590;8.854;2023-08-30T02:09:45;10.60;99.90
18225;DHT22;9237;48.590;8.854;2023-08-30T02:12:16;10.60;99.90
18225;DHT22;9237;48.590;8.854;2023-08-30T02:14:45;10.50;99.90
18225;DHT22;9237;48.590;8.854;2023-08-30T02:17:16;10.40;99.90
18225;DHT22;9237;48.590;8.854;2023-08-30T02:19:44;10.30;99.90
18225;DHT22;9237;48.590;8.854;2023-08-30T02:22:11;10.30;99.90
18225;DHT22;9237;48.590;8.854;2023-08-30T02:24:38;10.20;99.90
18225;DHT22;9237;48.590;8.854;2023-08-30T02:27:05;10.20;99.90
18225;DHT22;9237;48.590;8.854;2023-08-30T02:29:32;10.30;99.90
18225;DHT22;9237;48.590;8.854;2023-08-30T02:31:58;10.30;99.90
18225;DHT22;9237;48.590;8.854;2023-08-30T02:34:27;10.40;99.90
18225;DHT22;9237;48.590;8.854;2023-08-30T02:36:53;10.60;99.90
18225;DHT22;9237;48.590;8.854;2023-08-30T02:39:21;10.60;99.90
18225;DHT22;9237;48.590;8.854;2023-08-30T02:41:48;10.50;99.90
18225;DHT22;9237;48.590;8.854;2023-08-30T02:44:15;10.80;99.90
18225;DHT22;9237;48.590;8.854;2023-08-30T02:46:42;10.60;99.90
18225;DHT22;9237;48.590;8.854;2023-08-30T02:49:08;10.60;99.90
18225;DHT22;9237;48.590;8.854;2023-08-30T02:51:38;10.70;99.90
18225;DHT22;9237;48.590;8.854;2023-08-30T02:54:05;10.60;99.90
18225;DHT22;9237;48.590;8.854;2023-08-30T02:56:32;10.60;99.90
18225;DHT22;9237;48.590;8.854;2023-08-30T02:58:58;10.90;99.90
18225;DHT22;9237;48.590;8.854;2023-08-30T03:01:25;11.30;99.90
18225;DHT22;9237;48.590;8.854;2023-08-30T03:03:52;10.70;99.90
18225;DHT22;9237;48.590;8.854;2023-08-30T03:06:19;10.80;99.90
18225;DHT22;9237;48.590;8.854;2023-08-30T03:08:47;10.90;99.90
18225;DHT22;9237;48.590;8.854;2023-08-30T03:11:14;10.90;99.90
18225;DHT22;9237;48.590;8.854;2023-08-30T03:13:41;11.40;99.90
18225;DHT22;9237;48.590;8.854;2023-08-30T03:16:11;11.00;99.90
18225;DHT22;9237;48.590;8.854;2023-08-30T03:18:38;11.00;99.90
18225;DHT22;9237;48.590;8.854;2023-08-30T03:21:05;11.00;99.90
18225;DHT22;9237;48.590;8.854;2023-08-30T03:23:33;11.10;99.90
18225;DHT22;9237;48.590;8.854;2023-08-30T03:26:08;11.00;99.90
18225;DHT22;9237;48.590;8.854;2023-08-30T03:28:35;11.00;99.90
18225;DHT22;9237;48.590;8.854;2023-08-30T03:31:10;10.90;99.90
18225;DHT22;9237;48.590;8.854;2023-08-30T03:33:37;10.90;99.90
18225;DHT22;9237;48.590;8.854;2023-08-30T03:36:04;10.90;99.90
18225;DHT22;9237;48.590;8.854;2023-08-30T03:38:31;10.90;99.90
18225;DHT22;9237;48.590;8.854;2023-08-30T03:40:57;10.90;99.90
18225;DHT22;9237;48.590;8.854;2023-08-30T03:43:26;10.90;99.90
18225;DHT22;9237;48.590;8.854;2023-08-30T03:45:52;10.80;99.90
18225;DHT22;9237;48.590;8.854;2023-08-30T03:48:19;10.80;99.90
18225;DHT22;9237;48.590;8.854;2023-08-30T03:50:46;10.70;99.90
18225;DHT22;9237;48.590;8.854;2023-08-30T03:53:13;10.70;99.90
18225;DHT22;9237;48.590;8.854;2023-08-30T03:55:40;11.70;99.90
18225;DHT22;9237;48.590;8.854;2023-08-30T03:58:07;10.70;99.90
18225;DHT22;9237;48.590;8.854;2023-08-30T04:00:37;11.00;99.90
18225;DHT22;9237;48.590;8.854;2023-08-30T04:03:04;10.70;99.90
18225;DHT22;9237;48.590;8.854;2023-08-30T04:05:32;10.70;99.90
18225;DHT22;9237;48.590;8.854;2023-08-30T04:08:00;11.40;99.90
18225;DHT22;9237;48.590;8.854;2023-08-30T04:10:27;10.90;99.90
18225;DHT22;9237;48.590;8.854;2023-08-30T04:12:54;10.70;99.90
18225;DHT22;9237;48.590;8.854;2023-08-30T04:15:21;10.70;99.90
18225;DHT22;9237;48.590;8.854;2023-08-30T04:17:49;12.30;99.90
18225;DHT22;9237;48.590;8.854;2023-08-30T04:20:16;11.20;99.90
18225;DHT22;9237;48.590;8.854;2023-08-30T04:22:42;10.80;99.90
18225;DHT22;9237;48.590;8.854;2023-08-30T04:25:09;10.80;99.90
18225;DHT22;9237;48.590;8.854;2023-08-30T04:27:36;10.80;99.90
18225;DHT22;9237;48.590;8.854;2023-08-30T04:30:03;10.80;99.90
18225;DHT22;9237;48.590;8.854;2023-08-30T04:32:30;10.80;99.90
18225;DHT22;9237;48.590;8.854;2023-08-30T04:34:58;10.80;99.90
18225;DHT22;9237;48.590;8.854;2023-08-30T04:37:30;10.70;99.90
18225;DHT22;9237;48.590;8.854;2023-08-30T04:39:57;10.70;99.90
18225;DHT22;9237;48.590;8.854;2023-08-30T04:42:24;10.80;99.90
18225;DHT22;9237;48.590;8.854;2023-08-30T04:44:51;10.80;99.90
18225;DHT22;9237;48.590;8.854;2023-08-30T04:47:20;10.80;99.90
18225;DHT22;9237;48.590;8.854;2023-08-30T04:49:50;10.80;99.90
18225;DHT22;9237;48.590;8.854;2023-08-30T04:52:18;10.80;99.90
18225;DHT22;9237;48.590;8.854;2023-08-30T04:54:45;11.40;99.90
18225;DHT22;9237;48.590;8.854;2023-08-30T04:57:14;11.10;99.90
18225;DHT22;9237;48.590;8.854;2023-08-30T04:59:41;10.80;99.90
18225;DHT22;9237;48.590;8.854;2023-08-30T05:02:08;11.00;99.90
18225;DHT22;9237;48.590;8.854;2023-08-30T05:04:36;11.00;99.90
18225;DHT22;9237;48.590;8.854;2023-08-30T05:07:03;11.00;99.90
18225;DHT22;9237;48.590;8.854;2023-08-30T05:09:31;11.00;99.90
18225;DHT22;9237;48.590;8.854;2023-08-30T05:11:58;11.20;99.90
18225;DHT22;9237;48.590;8.854;2023-08-30T05:14:25;11.30;99.90
18225;DHT22;9237;48.590;8.854;2023-08-30T05:16:52;11.40;99.90
18225;DHT22;9237;48.590;8.854;2023-08-30T05:19:19;11.40;99.90
18225;DHT22;9237;48.590;8.854;2023-08-30T05:21:46;11.40;99.90
18225;DHT22;9237;48.590;8.854;2023-08-30T05:24:16;11.40;99.90
18225;DHT22;9237;48.590;8.854;2023-08-30T05:26:45;11.50;99.90
18225;DHT22;9237;48.590;8.854;2023-08-30T05:29:12;11.50;99.90
18225;DHT22;9237;48.590;8.854;2023-08-30T05:31:39;11.70;99.90
18225;DHT22;9237;48.590;8.854;2023-08-30T05:34:06;11.70;99.90
18225;DHT22;9237;48.590;8.854;2023-08-30T05:36:32;11.70;99.90
18225;DHT22;9237;48.590;8.854;2023-08-30T05:38:59;11.70;99.90
18225;DHT22;9237;48.590;8.854;2023-08-30T05:41:26;11.70;99.90
18225;DHT22;9237;48.590;8.854;2023-08-30T05:43:54;11.70;99.90
18225;DHT22;9237;48.590;8.854;2023-08-30T05:46:21;11.70;99.90
18225;DHT22;9237;48.590;8.854;2023-08-30T05:48:48;11.70;99.90
18225;DHT22;9237;48.590;8.854;2023-08-30T05:51:15;11.80;99.90
18225;DHT22;9237;48.590;8.854;2023-08-30T05:53:41;11.80;99.90
18225;DHT22;9237;48.590;8.854;2023-08-30T05:56:08;11.90;99.90
18225;DHT22;9237;48.590;8.854;2023-08-30T05:58:35;12.00;99.90
18225;DHT22;9237;48.590;8.854;2023-08-30T06:01:04;12.00;99.90
18225;DHT22;9237;48.590;8.854;2023-08-30T06:03:33;12.00;99.90
18225;DHT22;9237;48.590;8.854;2023-08-30T06:05:59;12.10;99.90
18225;DHT22;9237;48.590;8.854;2023-08-30T06:08:27;12.00;99.90
18225;DHT22;9237;48.590;8.854;2023-08-30T06:10:53;12.00;99.90
18225;DHT22;9237;48.590;8.854;2023-08-30T06:13:20;12.00;99.90
18225;DHT22;9237;48.590;8.854;2023-08-30T06:15:50;12.20;99.90
18225;DHT22;9237;48.590;8.854;2023-08-30T06:18:18;12.30;99.90
18225;DHT22;9237;48.590;8.854;2023-08-30T06:20:45;12.20;99.90
18225;DHT22;9237;48.590;8.854;2023-08-30T06:23:13;12.30;99.90
18225;DHT22;9237;48.590;8.854;2023-08-30T06:25:41;12.30;99.90
18225;DHT22;9237;48.590;8.854;2023-08-30T06:28:08;12.40;99.90
18225;DHT22;9237;48.590;8.854;2023-08-30T06:30:35;12.50;99.90
18225;DHT22;9237;48.590;8.854;2023-08-30T06:33:01;12.50;99.90
18225;DHT22;9237;48.590;8.854;2023-08-30T06:35:30;12.60;99.90
18225;DHT22;9237;48.590;8.854;2023-08-30T06:37:57;12.60;99.90
18225;DHT22;9237;48.590;8.854;2023-08-30T06:40:24;12.70;99.90
18225;DHT22;9237;48.590;8.854;2023-08-30T06:42:51;12.80;99.90
18225;DHT22;9237;48.590;8.854;2023-08-30T06:45:17;12.90;99.90
18225;DHT22;9237;48.590;8.854;2023-08-30T06:47:44;12.90;99.90
18225;DHT22;9237;48.590;8.854;2023-08-30T06:50:11;12.90;99.90
18225;DHT22;9237;48.590;8.854;2023-08-30T06:52:39;13.00;99.90
18225;DHT22;9237;48.590;8.854;2023-08-30T06:55:06;13.00;99.90
18225;DHT22;9237;48.590;8.854;2023-08-30T06:57:33;13.10;99.90
18225;DHT22;9237;48.590;8.854;2023-08-30T07:00:00;13.10;99.90
18225;DHT22;9237;48.590;8.854;2023-08-30T07:02:33;13.20;99.90
18225;DHT22;9237;48.590;8.854;2023-08-30T07:05:00;13.20;99.90
18225;DHT22;9237;48.590;8.854;2023-08-30T07:07:30;14.10;99.90
18225;DHT22;9237;48.590;8.854;2023-08-30T07:09:58;13.30;99.90
18225;DHT22;9237;48.590;8.854;2023-08-30T07:12:25;13.30;99.90
18225;DHT22;9237;48.590;8.854;2023-08-30T07:14:52;13.50;99.90
18225;DHT22;9237;48.590;8.854;2023-08-30T07:17:20;13.40;99.90
18225;DHT22;9237;48.590;8.854;2023-08-30T07:19:46;13.70;99.90
18225;DHT22;9237;48.590;8.854;2023-08-30T07:22:13;13.60;99.90
18225;DHT22;9237;48.590;8.854;2023-08-30T07:24:42;13.70;99.90
18225;DHT22;9237;48.590;8.854;2023-08-30T07:27:10;13.80;99.90
18225;DHT22;9237;48.590;8.854;2023-08-30T07:29:38;13.80;99.90
18225;DHT22;9237;48.590;8.854;2023-08-30T07:32:05;14.70;99.90
18225;DHT22;9237;48.590;8.854;2023-08-30T07:34:32;13.90;99.90
18225;DHT22;9237;48.590;8.854;2023-08-30T07:36:59;14.00;99.90
18225;DHT22;9237;48.590;8.854;2023-08-30T07:39:26;14.10;99.90
18225;DHT22;9237;48.590;8.854;2023-08-30T07:41:52;14.10;99.90
18225;DHT22;9237;48.590;8.854;2023-08-30T07:44:21;14.10;99.90
18225;DHT22;9237;48.590;8.854;2023-08-30T07:46:47;14.30;99.90
18225;DHT22;9237;48.590;8.854;2023-08-30T07:49:14;14.40;99.90
18225;DHT22;9237;48.590;8.854;2023-08-30T07:51:41;14.50;99.90
18225;DHT22;9237;48.590;8.854;2023-08-30T07:54:08;14.70;99.90
18225;DHT22;9237;48.590;8.854;2023-08-30T07:56:34;15.00;99.90
18225;DHT22;9237;48.590;8.854;2023-08-30T07:59:01;14.80;99.90
18225;DHT22;9237;48.590;8.854;2023-08-30T08:01:29;15.00;99.90
18225;DHT22;9237;48.590;8.854;2023-08-30T08:03:56;15.20;99.90
18225;DHT22;9237;48.590;8.854;2023-08-30T08:06:23;15.30;99.90
18225;DHT22;9237;48.590;8.854;2023-08-30T08:08:50;15.10;99.90
18225;DHT22;9237;48.590;8.854;2023-08-30T08:11:16;15.30;99.90
18225;DHT22;9237;48.590;8.854;2023-08-30T08:13:43;15.10;99.90
18225;DHT22;9237;48.590;8.854;2023-08-30T08:16:10;16.10;99.90
18225;DHT22;9237;48.590;8.854;2023-08-30T08:18:39;15.60;99.90
18225;DHT22;9237;48.590;8.854;2023-08-30T08:21:05;15.80;99.90
18225;DHT22;9237;48.590;8.854;2023-08-30T08:23:32;15.60;99.90
18225;DHT22;9237;48.590;8.854;2023-08-30T08:26:00;15.90;99.90
18225;DHT22;9237;48.590;8.854;2023-08-30T08:28:28;16.10;99.90
18225;DHT22;9237;48.590;8.854;2023-08-30T08:30:55;16.00;99.90
18225;DHT22;9237;48.590;8.854;2023-08-30T08:33:22;16.20;99.90
18225;DHT22;9237;48.590;8.854;2023-08-30T08:35:51;16.60;99.90
18225;DHT22;9237;48.590;8.854;2023-08-30T08:38:17;16.60;99.90
18225;DHT22;9237;48.590;8.854;2023-08-30T08:40:44;16.80;99.90
18225;DHT22;9237;48.590;8.854;2023-08-30T08:43:11;16.80;99.90
18225;DHT22;9237;48.590;8.854;2023-08-30T08:45:38;16.70;99.90
18225;DHT22;9237;48.590;8.854;2023-08-30T08:48:06;17.20;99.90
18225;DHT22;9237;48.590;8.854;2023-08-30T08:50:33;17.80;99.90
18225;DHT22;9237;48.590;8.854;2023-08-30T08:53:01;18.20;99.90
18225;DHT22;9237;48.590;8.854;2023-08-30T08:55:29;18.00;99.90
18225;DHT22;9237;48.590;8.854;2023-08-30T08:57:57;17.80;99.90
18225;DHT22;9237;48.590;8.854;2023-08-30T09:00:25;18.00;99.90
18225;DHT22;9237;48.590;8.854;2023-08-30T09:02:53;18.30;99.90
18225;DHT22;9237;48.590;8.854;2023-08-30T09:05:20;18.30;99.90
18225;DHT22;9237;48.590;8.854;2023-08-30T09:07:47;18.60;99.90
18225;DHT22;9237;48.590;8.854;2023-08-30T09:10:18;18.90;99.90
18225;DHT22;9237;48.590;8.854;2023-08-30T09:12:45;19.10;99.90
18225;DHT22;9237;48.590;8.854;2023-08-30T09:15:11;19.30;99.90
18225;DHT22;9237;48.590;8.854;2023-08-30T09:17:39;19.70;99.90
18225;DHT22;9237;48.590;8.854;2023-08-30T09:20:07;20.30;99.90
18225;DHT22;9237;48.590;8.854;2023-08-30T09:22:38;20.60;99.90
18225;DHT22;9237;48.590;8.854;2023-08-30T09:25:06;21.20;99.90
18225;DHT22;9237;48.590;8.854;2023-08-30T09:27:34;21.40;99.90
18225;DHT22;9237;48.590;8.854;2023-08-30T09:30:03;21.30;99.90
18225;DHT22;9237;48.590;8.854;2023-08-30T09:32:31;21.70;99.90
18225;DHT22;9237;48.590;8.854;2023-08-30T09:34:57;21.90;99.90
18225;DHT22;9237;48.590;8.854;2023-08-30T09:37:24;22.10;99.90
18225;DHT22;9237;48.590;8.854;2023-08-30T09:39:52;22.30;99.90
18225;DHT22;9237;48.590;8.854;2023-08-30T09:42:19;22.40;99.90
18225;DHT22;9237;48.590;8.854;2023-08-30T09:44:47;21.70;99.90
18225;DHT22;9237;48.590;8.854;2023-08-30T09:47:14;21.50;99.90
18225;DHT22;9237;48.590;8.854;2023-08-30T09:49:43;21.40;99.90
18225;DHT22;9237;48.590;8.854;2023-08-30T09:52:12;21.80;99.90
18225;DHT22;9237;48.590;8.854;2023-08-30T09:54:41;21.80;99.90
18225;DHT22;9237;48.590;8.854;2023-08-30T09:57:09;22.10;99.90
18225;DHT22;9237;48.590;8.854;2023-08-30T09:59:36;22.10;99.90
18225;DHT22;9237;48.590;8.854;2023-08-30T10:02:05;22.10;99.90
18225;DHT22;9237;48.590;8.854;2023-08-30T10:04:35;22.40;99.90
18225;DHT22;9237;48.590;8.854;2023-08-30T10:07:04;22.80;99.90
18225;DHT22;9237;48.590;8.854;2023-08-30T10:09:32;22.60;99.90
18225;DHT22;9237;48.590;8.854;2023-08-30T10:12:00;22.90;99.90
18225;DHT22;9237;48.590;8.854;2023-08-30T10:14:28;23.00;99.90
18225;DHT22;9237;48.590;8.854;2023-08-30T10:17:01;22.80;99.90
18225;DHT22;9237;48.590;8.854;2023-08-30T10:19:30;22.90;99.90
18225;DHT22;9237;48.590;8.854;2023-08-30T10:22:01;22.80;99.90
18225;DHT22;9237;48.590;8.854;2023-08-30T10:24:31;22.70;99.90
18225;DHT22;9237;48.590;8.854;2023-08-30T10:27:00;23.10;99.90
18225;DHT22;9237;48.590;8.854;2023-08-30T10:29:29;23.30;99.90
18225;DHT22;9237;48.590;8.854;2023-08-30T10:32:02;23.20;99.90
18225;DHT22;9237;48.590;8.854;2023-08-30T10:34:33;23.70;99.90
18225;DHT22;9237;48.590;8.854;2023-08-30T10:37:02;24.10;99.90
18225;DHT22;9237;48.590;8.854;2023-08-30T10:39:39;24.30;99.90
18225;DHT22;9237;48.590;8.854;2023-08-30T10:42:09;24.60;99.90
18225;DHT22;9237;48.590;8.854;2023-08-30T10:44:47;24.80;99.90
18225;DHT22;9237;48.590;8.854;2023-08-30T10:47:22;24.90;99.90
18225;DHT22;9237;48.590;8.854;2023-08-30T10:49:53;24.70;99.90
18225;DHT22;9237;48.590;8.854;2023-08-30T10:52:20;24.30;99.90
18225;DHT22;9237;48.590;8.854;2023-08-30T10:54:47;23.90;99.90
18225;DHT22;9237;48.590;8.854;2023-08-30T10:57:19;24.10;99.90
18225;DHT22;9237;48.590;8.854;2023-08-30T11:00:08;24.70;99.90
18225;DHT22;9237;48.590;8.854;2023-08-30T11:02:36;25.10;99.90
18225;DHT22;9237;48.590;8.854;2023-08-30T11:05:06;25.10;99.90
18225;DHT22;9237;48.590;8.854;2023-08-30T11:07:33;25.00;99.90
18225;DHT22;9237;48.590;8.854;2023-08-30T11:10:00;24.60;99.90
18225;DHT22;9237;48.590;8.854;2023-08-30T11:12:27;24.80;99.90
18225;DHT22;9237;48.590;8.854;2023-08-30T11:14:55;24.80;99.90
18225;DHT22;9237;48.590;8.854;2023-08-30T11:17:22;24.10;99.90
18225;DHT22;9237;48.590;8.854;2023-08-30T11:19:51;23.40;99.90
18225;DHT22;9237;48.590;8.854;2023-08-30T11:22:25;23.10;99.90
18225;DHT22;9237;48.590;8.854;2023-08-30T11:24:52;23.20;99.90
18225;DHT22;9237;48.590;8.854;2023-08-30T11:27:19;23.10;99.90
18225;DHT22;9237;48.590;8.854;2023-08-30T11:29:45;21.40;99.90
18225;DHT22;9237;48.590;8.854;2023-08-30T11:32:12;19.90;99.90
18225;DHT22;9237;48.590;8.854;2023-08-30T11:34:39;19.00;99.90
18225;DHT22;9237;48.590;8.854;2023-08-30T11:37:06;18.50;99.90
18225;DHT22;9237;48.590;8.854;2023-08-30T11:39:35;18.10;99.90
18225;DHT22;9237;48.590;8.854;2023-08-30T11:42:04;17.90;99.90
18225;DHT22;9237;48.590;8.854;2023-08-30T11:44:32;18.00;99.90
18225;DHT22;9237;48.590;8.854;2023-08-30T11:46:59;17.80;99.90
18225;DHT22;9237;48.590;8.854;2023-08-30T11:49:26;17.50;99.90
18225;DHT22;9237;48.590;8.854;2023-08-30T11:51:54;17.30;99.90
18225;DHT22;9237;48.590;8.854;2023-08-30T11:54:22;17.00;99.90
18225;DHT22;9237;48.590;8.854;2023-08-30T11:56:51;17.40;99.90
18225;DHT22;9237;48.590;8.854;2023-08-30T11:59:19;16.40;99.90
18225;DHT22;9237;48.590;8.854;2023-08-30T12:01:46;15.80;99.90
18225;DHT22;9237;48.590;8.854;2023-08-30T12:04:13;15.70;99.90
18225;DHT22;9237;48.590;8.854;2023-08-30T12:06:40;15.70;99.90
18225;DHT22;9237;48.590;8.854;2023-08-30T12:09:12;15.70;99.90
18225;DHT22;9237;48.590;8.854;2023-08-30T12:11:38;15.60;99.90
18225;DHT22;9237;48.590;8.854;2023-08-30T12:14:07;15.80;99.90
18225;DHT22;9237;48.590;8.854;2023-08-30T12:16:33;15.80;99.90
18225;DHT22;9237;48.590;8.854;2023-08-30T12:19:10;15.60;99.90
18225;DHT22;9237;48.590;8.854;2023-08-30T12:21:41;15.70;99.90
18225;DHT22;9237;48.590;8.854;2023-08-30T12:24:08;15.70;99.90
18225;DHT22;9237;48.590;8.854;2023-08-30T12:26:35;15.90;99.90
18225;DHT22;9237;48.590;8.854;2023-08-30T12:29:04;15.80;99.90
18225;DHT22;9237;48.590;8.854;2023-08-30T12:31:32;15.90;99.90
18225;DHT22;9237;48.590;8.854;2023-08-30T12:33:59;15.80;99.90
18225;DHT22;9237;48.590;8.854;2023-08-30T12:36:25;16.00;99.90
18225;DHT22;9237;48.590;8.854;2023-08-30T12:38:52;16.30;99.90
18225;DHT22;9237;48.590;8.854;2023-08-30T12:41:19;16.50;99.90
18225;DHT22;9237;48.590;8.854;2023-08-30T12:43:48;16.70;99.90
18225;DHT22;9237;48.590;8.854;2023-08-30T12:46:15;16.90;99.90
18225;DHT22;9237;48.590;8.854;2023-08-30T12:48:43;17.00;99.90
18225;DHT22;9237;48.590;8.854;2023-08-30T12:51:11;17.80;99.90
18225;DHT22;9237;48.590;8.854;2023-08-30T12:53:40;18.10;99.90
18225;DHT22;9237;48.590;8.854;2023-08-30T12:56:07;18.70;99.90
18225;DHT22;9237;48.590;8.854;2023-08-30T12:58:33;19.30;99.90
18225;DHT22;9237;48.590;8.854;2023-08-30T13:01:00;19.90;99.90
18225;DHT22;9237;48.590;8.854;2023-08-30T13:03:27;20.40;99.90
18225;DHT22;9237;48.590;8.854;2023-08-30T13:05:56;20.50;99.90
18225;DHT22;9237;48.590;8.854;2023-08-30T13:08:24;20.30;99.90
18225;DHT22;9237;48.590;8.854;2023-08-30T13:10:52;20.10;99.90
18225;DHT22;9237;48.590;8.854;2023-08-30T13:13:18;20.00;99.90
18225;DHT22;9237;48.590;8.854;2023-08-30T13:15:46;20.80;99.90
18225;DHT22;9237;48.590;8.854;2023-08-30T13:18:13;21.50;99.90
18225;DHT22;9237;48.590;8.854;2023-08-30T13:20:41;21.60;99.90
18225;DHT22;9237;48.590;8.854;2023-08-30T13:23:09;22.50;99.90
18225;DHT22;9237;48.590;8.854;2023-08-30T13:25:38;23.40;99.90
18225;DHT22;9237;48.590;8.854;2023-08-30T13:28:05;23.50;99.90
18225;DHT22;9237;48.590;8.854;2023-08-30T13:30:33;22.70;99.90
18225;DHT22;9237;48.590;8.854;2023-08-30T13:32:59;22.50;99.90
18225;DHT22;9237;48.590;8.854;2023-08-30T13:35:26;23.10;99.90
18225;DHT22;9237;48.590;8.854;2023-08-30T13:37:53;23.00;99.90
18225;DHT22;9237;48.590;8.854;2023-08-30T13:40:21;22.50;99.90
18225;DHT22;9237;48.590;8.854;2023-08-30T13:42:48;21.80;99.90
18225;DHT22;9237;48.590;8.854;2023-08-30T13:45:15;21.30;99.90
18225;DHT22;9237;48.590;8.854;2023-08-30T13:47:42;21.00;99.90
18225;DHT22;9237;48.590;8.854;2023-08-30T13:50:10;20.80;99.90
18225;DHT22;9237;48.590;8.854;2023-08-30T13:52:37;21.50;99.90
18225;DHT22;9237;48.590;8.854;2023-08-30T13:55:04;22.10;99.90
18225;DHT22;9237;48.590;8.854;2023-08-30T13:57:33;21.90;99.90
18225;DHT22;9237;48.590;8.854;2023-08-30T13:59:59;21.50;99.90
18225;DHT22;9237;48.590;8.854;2023-08-30T14:02:31;21.10;99.90
18225;DHT22;9237;48.590;8.854;2023-08-30T14:04:59;20.50;99.90
18225;DHT22;9237;48.590;8.854;2023-08-30T14:07:25;20.20;99.90
18225;DHT22;9237;48.590;8.854;2023-08-30T14:09:52;20.10;99.90
18225;DHT22;9237;48.590;8.854;2023-08-30T14:12:19;20.10;99.90
18225;DHT22;9237;48.590;8.854;2023-08-30T14:14:47;19.80;99.90
18225;DHT22;9237;48.590;8.854;2023-08-30T14:17:14;19.90;99.90
18225;DHT22;9237;48.590;8.854;2023-08-30T14:19:41;20.00;99.90
18225;DHT22;9237;48.590;8.854;2023-08-30T14:22:08;20.00;99.90
18225;DHT22;9237;48.590;8.854;2023-08-30T14:24:34;20.50;99.90
18225;DHT22;9237;48.590;8.854;2023-08-30T14:27:01;20.10;99.90
18225;DHT22;9237;48.590;8.854;2023-08-30T14:29:29;20.50;99.90
18225;DHT22;9237;48.590;8.854;2023-08-30T14:31:57;22.20;99.90
18225;DHT22;9237;48.590;8.854;2023-08-30T14:34:24;23.50;98.30
18225;DHT22;9237;48.590;8.854;2023-08-30T14:36:51;23.50;96.60
18225;DHT22;9237;48.590;8.854;2023-08-30T14:39:18;22.90;97.20
18225;DHT22;9237;48.590;8.854;2023-08-30T14:41:45;22.50;97.20
18225;DHT22;9237;48.590;8.854;2023-08-30T14:44:11;22.00;97.10
18225;DHT22;9237;48.590;8.854;2023-08-30T14:46:38;21.30;96.30
18225;DHT22;9237;48.590;8.854;2023-08-30T14:49:06;21.20;96.50
18225;DHT22;9237;48.590;8.854;2023-08-30T14:51:33;20.80;97.60
18225;DHT22;9237;48.590;8.854;2023-08-30T14:54:00;20.60;99.90
18225;DHT22;9237;48.590;8.854;2023-08-30T14:56:27;20.60;99.90
18225;DHT22;9237;48.590;8.854;2023-08-30T14:58:54;20.70;99.90
18225;DHT22;9237;48.590;8.854;2023-08-30T15:01:20;20.80;99.90
18225;DHT22;9237;48.590;8.854;2023-08-30T15:03:47;20.70;99.90
18225;DHT22;9237;48.590;8.854;2023-08-30T15:06:15;20.80;99.90
18225;DHT22;9237;48.590;8.854;2023-08-30T15:08:42;20.80;99.90
18225;DHT22;9237;48.590;8.854;2023-08-30T15:11:09;20.90;99.80
18225;DHT22;9237;48.590;8.854;2023-08-30T15:13:36;21.00;98.70
18225;DHT22;9237;48.590;8.854;2023-08-30T15:16:03;21.60;97.30
18225;DHT22;9237;48.590;8.854;2023-08-30T15:18:30;21.70;95.50
18225;DHT22;9237;48.590;8.854;2023-08-30T15:20:57;21.70;95.00
18225;DHT22;9237;48.590;8.854;2023-08-30T15:23:26;21.90;93.60
18225;DHT22;9237;48.590;8.854;2023-08-30T15:25:53;22.10;93.90
18225;DHT22;9237;48.590;8.854;2023-08-30T15:28:20;21.70;95.60
18225;DHT22;9237;48.590;8.854;2023-08-30T15:30:47;21.50;96.00
18225;DHT22;9237;48.590;8.854;2023-08-30T15:33:16;21.70;96.80
18225;DHT22;9237;48.590;8.854;2023-08-30T15:35:43;22.10;96.90
18225;DHT22;9237;48.590;8.854;2023-08-30T15:38:10;22.80;94.00
18225;DHT22;9237;48.590;8.854;2023-08-30T15:40:39;23.20;93.10
18225;DHT22;9237;48.590;8.854;2023-08-30T15:43:06;22.90;92.10
18225;DHT22;9237;48.590;8.854;2023-08-30T15:45:33;22.70;92.70
18225;DHT22;9237;48.590;8.854;2023-08-30T15:48:00;22.60;92.80